Time,TemperatureF,DewpointF,PressureIn,WindDirection,WindDirectionDegrees,WindSpeedMPH,WindSpeedGustMPH,Humidity,HourlyPrecipIn,Conditions,Clouds,dailyrainin,SoftwareType,DateUTC
2013-01-02 00:02:00,17.0,7.3,29.96,West,270,0.0,2.0,65,0.00,,,0.00,WUHU216DAVISWMX,2013-01-02 05:02:00,
2013-01-02 00:07:00,17.0,7.3,29.95,SW,221,0.0,4.0,65,0.00,,,0.00,WUHU216DAVISWMX,2013-01-02 05:07:00,
2013-01-02 00:12:00,16.8,7.1,29.95,SSW,209,0.0,4.0,65,0.00,,,0.00,WUHU216DAVISWMX,2013-01-02 05:12:00,
2013-01-02 00:17:00,16.5,7.2,29.95,SSW,209,0.0,0.0,66,0.00,,,0.00,WUHU216DAVISWMX,2013-01-02 05:17:00,
2013-01-02 00:22:00,16.4,6.7,29.96,SSW,209,0.0,0.0,65,0.00,,,0.00,WUHU216DAVISWMX,2013-01-02 05:22:00,
2013-01-02 00:27:00,16.1,6.4,29.96,SSW,209,0.0,0.0,65,0.00,,,0.00,WUHU216DAVISWMX,2013-01-02 05:27:00,
2013-01-02 00:32:00,15.9,6.6,29.96,SSW,209,0.0,0.0,66,0.00,,,0.00,WUHU216DAVISWMX,2013-01-02 05:32:00,
2013-01-02 00:37:00,15.7,6.4,29.96,SSW,209,0.0,0.0,66,0.00,,,0.00,WUHU216DAVISWMX,2013-01-02 05:37:00,
2013-01-02 00:42:00,15.4,6.1,29.96,SSW,209,0.0,0.0,66,0.00,,,0.00,WUHU216DAVISWMX,2013-01-02 05:42:00,
2013-01-02 00:47:00,15.2,6.6,29.96,SSW,209,0.0,0.0,68,0.00,,,0.00,WUHU216DAVISWMX,2013-01-02 05:47:00,
2013-01-02 00:52:00,14.9,6.0,29.96,SSW,209,0.0,0.0,67,0.00,,,0.00,WUHU216DAVISWMX,2013-01-02 05:52:00,
2013-01-02 00:57:00,14.7,5.8,29.96,SSW,209,0.0,0.0,67,0.00,,,0.00,WUHU216DAVISWMX,2013-01-02 05:57:00,
2013-01-02 01:02:00,14.4,5.8,29.96,SSW,209,0.0,0.0,68,0.00,,,0.00,WUHU216DAVISWMX,2013-01-02 06:02:00,
2013-01-02 01:07:00,14.2,5.6,29.96,SSW,209,0.0,0.0,68,0.00,,,0.00,WUHU216DAVISWMX,2013-01-02 06:07:00,
2013-01-02 01:12:00,14.0,5.7,29.96,SSW,209,0.0,0.0,69,0.00,,,0.00,WUHU216DAVISWMX,2013-01-02 06:12:00,
2013-01-02 01:17:00,13.8,5.6,29.97,SSW,209,0.0,0.0,69,0.00,,,0.00,WUHU216DAVISWMX,2013-01-02 06:17:00,
2013-01-02 01:22:00,13.7,5.5,29.97,SSW,209,0.0,0.0,69,0.00,,,0.00,WUHU216DAVISWMX,2013-01-02 06:22:00,
2013-01-02 01:27:00,13.4,5.5,29.97,SSW,210,0.0,0.0,70,0.00,,,0.00,WUHU216DAVISWMX,2013-01-02 06:27:00,
2013-01-02 01:32:00,13.4,5.8,29.97,SSW,209,0.0,0.0,71,0.00,,,0.00,WUHU216DAVISWMX,2013-01-02 06:32:00,
2013-01-02 01:37:00,13.3,5.4,29.98,SSW,209,0.0,0.0,70,0.00,,,0.00,WUHU216DAVISWMX,2013-01-02 06:37:00,
2013-01-02 01:42:00,13.1,5.2,29.98,SSW,209,0.0,0.0,70,0.00,,,0.00,WUHU216DAVISWMX,2013-01-02 06:42:00,
2013-01-02 01:47:00,12.7,4.8,29.98,SSW,209,0.0,0.0,70,0.00,,,0.00,WUHU216DAVISWMX,2013-01-02 06:47:00,
2013-01-02 01:52:00,12.6,5.0,29.98,SSW,209,0.0,0.0,71,0.00,,,0.00,WUHU216DAVISWMX,2013-01-02 06:52:00,
2013-01-02 01:57:00,12.5,4.9,29.98,SSW,209,0.0,0.0,71,0.00,,,0.00,WUHU216DAVISWMX,2013-01-02 06:57:00,
2013-01-02 02:02:00,12.3,4.7,29.99,SSW,210,0.0,0.0,71,0.00,,,0.00,WUHU216DAVISWMX,2013-01-02 07:02:00,
2013-01-02 02:07:00,12.1,4.5,29.99,SSW,209,0.0,0.0,71,0.00,,,0.00,WUHU216DAVISWMX,2013-01-02 07:07:00,
2013-01-02 02:12:00,11.9,4.3,29.99,SSW,209,0.0,0.0,71,0.00,,,0.00,WUHU216DAVISWMX,2013-01-02 07:12:00,
2013-01-02 02:17:00,11.8,4.2,29.99,SSW,210,0.0,0.0,71,0.00,,,0.00,WUHU216DAVISWMX,2013-01-02 07:17:00,
2013-01-02 02:22:00,11.7,4.5,29.99,SSW,209,0.0,0.0,72,0.00,,,0.00,WUHU216DAVISWMX,2013-01-02 07:22:00,
2013-01-02 02:27:00,11.6,4.4,29.99,SSW,209,0.0,0.0,72,0.00,,,0.00,WUHU216DAVISWMX,2013-01-02 07:27:00,
2013-01-02 02:32:00,11.3,3.8,29.99,SSW,209,0.0,0.0,71,0.00,,,0.00,WUHU216DAVISWMX,2013-01-02 07:32:00,
2013-01-02 02:37:00,11.1,3.6,29.99,SSW,209,0.0,0.0,71,0.00,,,0.00,WUHU216DAVISWMX,2013-01-02 07:37:00,
2013-01-02 02:42:00,10.8,3.3,29.99,SSW,210,0.0,0.0,71,0.00,,,0.00,WUHU216DAVISWMX,2013-01-02 07:42:00,
2013-01-02 02:47:00,10.6,3.1,29.99,SSW,210,0.0,0.0,71,0.00,,,0.00,WUHU216DAVISWMX,2013-01-02 07:47:00,
2013-01-02 02:52:00,10.5,3.0,30.00,SSW,209,0.0,0.0,71,0.00,,,0.00,WUHU216DAVISWMX,2013-01-02 07:52:00,
2013-01-02 02:57:00,10.3,2.8,30.00,SSW,209,0.0,0.0,71,0.00,,,0.00,WUHU216DAVISWMX,2013-01-02 07:57:00,
2013-01-02 03:02:00,10.1,2.6,30.00,SSW,209,0.0,0.0,71,0.00,,,0.00,WUHU216DAVISWMX,2013-01-02 08:02:00,
2013-01-02 03:07:00,10.0,2.5,30.00,SSW,209,0.0,0.0,71,0.00,,,0.00,WUHU216DAVISWMX,2013-01-02 08:07:00,
2013-01-02 03:12:00,9.8,2.3,29.99,SSW,209,0.0,0.0,71,0.00,,,0.00,WUHU216DAVISWMX,2013-01-02 08:12:00,
2013-01-02 03:18:00,9.7,2.2,29.99,SSW,209,0.0,0.0,71,0.00,,,0.00,WUHU216DAVISWMX,2013-01-02 08:18:00,
2013-01-02 03:23:00,9.6,2.4,29.99,SSW,209,0.0,0.0,72,0.00,,,0.00,WUHU216DAVISWMX,2013-01-02 08:23:00,
2013-01-02 03:28:00,9.5,2.6,29.99,SSW,209,0.0,0.0,73,0.00,,,0.00,WUHU216DAVISWMX,2013-01-02 08:28:00,
2013-01-02 03:33:00,9.5,2.3,29.99,SSW,209,0.0,0.0,72,0.00,,,0.00,WUHU216DAVISWMX,2013-01-02 08:33:00,
2013-01-02 03:38:00,9.2,2.3,29.99,SSW,209,0.0,0.0,73,0.00,,,0.00,WUHU216DAVISWMX,2013-01-02 08:38:00,
2013-01-02 03:43:00,9.1,2.2,29.98,SSW,209,0.0,0.0,73,0.00,,,0.00,WUHU216DAVISWMX,2013-01-02 08:43:00,
2013-01-02 03:48:00,9.1,2.2,29.99,SSW,210,0.0,0.0,73,0.00,,,0.00,WUHU216DAVISWMX,2013-01-02 08:48:00,
2013-01-02 03:53:00,8.9,2.0,29.99,SSW,209,0.0,0.0,73,0.00,,,0.00,WUHU216DAVISWMX,2013-01-02 08:53:00,
2013-01-02 03:58:00,8.9,1.8,29.98,SSW,209,0.0,0.0,72,0.00,,,0.00,WUHU216DAVISWMX,2013-01-02 08:58:00,
2013-01-02 04:03:00,8.8,1.7,29.98,SSW,209,0.0,0.0,72,0.00,,,0.00,WUHU216DAVISWMX,2013-01-02 09:03:00,
2013-01-02 04:08:00,8.5,1.4,29.98,SSW,209,0.0,0.0,72,0.00,,,0.00,WUHU216DAVISWMX,2013-01-02 09:08:00,
2013-01-02 04:13:00,8.4,1.3,29.98,SSW,209,0.0,0.0,72,0.00,,,0.00,WUHU216DAVISWMX,2013-01-02 09:13:00,
2013-01-02 04:18:00,8.1,1.0,29.98,SSW,209,0.0,0.0,72,0.00,,,0.00,WUHU216DAVISWMX,2013-01-02 09:18:00,
2013-01-02 04:23:00,8.0,0.9,29.98,SSW,209,0.0,0.0,72,0.00,,,0.00,WUHU216DAVISWMX,2013-01-02 09:23:00,
2013-01-02 04:28:00,7.9,1.1,29.98,SSW,209,0.0,0.0,73,0.00,,,0.00,WUHU216DAVISWMX,2013-01-02 09:28:00,
2013-01-02 04:33:00,7.7,0.9,29.98,SSW,209,0.0,0.0,73,0.00,,,0.00,WUHU216DAVISWMX,2013-01-02 09:33:00,
2013-01-02 04:38:00,7.6,0.8,29.98,SSW,209,0.0,0.0,73,0.00,,,0.00,WUHU216DAVISWMX,2013-01-02 09:38:00,
2013-01-02 04:43:00,7.6,0.8,29.98,SSW,210,0.0,0.0,73,0.00,,,0.00,WUHU216DAVISWMX,2013-01-02 09:43:00,
2013-01-02 04:48:00,7.5,1.0,29.98,SSW,209,0.0,0.0,74,0.00,,,0.00,WUHU216DAVISWMX,2013-01-02 09:48:00,
2013-01-02 04:53:00,7.4,0.9,29.98,SSW,209,0.0,0.0,74,0.00,,,0.00,WUHU216DAVISWMX,2013-01-02 09:53:00,
2013-01-02 04:58:00,7.3,0.8,29.98,SSW,209,0.0,0.0,74,0.00,,,0.00,WUHU216DAVISWMX,2013-01-02 09:58:00,
2013-01-02 05:03:00,7.1,0.6,29.99,SSW,209,0.0,0.0,74,0.00,,,0.00,WUHU216DAVISWMX,2013-01-02 10:03:00,
2013-01-02 05:08:00,6.9,0.1,29.98,SSW,209,0.0,0.0,73,0.00,,,0.00,WUHU216DAVISWMX,2013-01-02 10:08:00,
2013-01-02 05:13:00,6.8,0.3,29.99,SSW,209,0.0,0.0,74,0.00,,,0.00,WUHU216DAVISWMX,2013-01-02 10:13:00,
2013-01-02 05:18:00,6.8,0.3,29.99,SSW,209,0.0,0.0,74,0.00,,,0.00,WUHU216DAVISWMX,2013-01-02 10:18:00,
2013-01-02 05:23:00,6.5,0.0,29.99,SSW,209,0.0,0.0,74,0.00,,,0.00,WUHU216DAVISWMX,2013-01-02 10:23:00,
2013-01-02 05:28:00,6.7,0.5,29.99,SSW,209,0.0,0.0,75,0.00,,,0.00,WUHU216DAVISWMX,2013-01-02 10:28:00,
2013-01-02 05:33:00,6.5,0.0,29.98,SSW,209,0.0,0.0,74,0.00,,,0.00,WUHU216DAVISWMX,2013-01-02 10:33:00,
2013-01-02 05:38:00,6.3,-0.2,29.99,SSW,209,0.0,0.0,74,0.00,,,0.00,WUHU216DAVISWMX,2013-01-02 10:38:00,
2013-01-02 05:43:00,6.2,0.0,29.99,SSW,210,0.0,0.0,75,0.00,,,0.00,WUHU216DAVISWMX,2013-01-02 10:43:00,
2013-01-02 05:48:00,6.2,0.0,29.99,SSW,209,0.0,0.0,75,0.00,,,0.00,WUHU216DAVISWMX,2013-01-02 10:48:00,
2013-01-02 05:53:00,6.1,-0.1,29.99,SSW,209,0.0,0.0,75,0.00,,,0.00,WUHU216DAVISWMX,2013-01-02 10:53:00,
2013-01-02 05:58:00,6.0,-0.2,29.99,SSW,210,0.0,0.0,75,0.00,,,0.00,WUHU216DAVISWMX,2013-01-02 10:58:00,
2013-01-02 06:03:00,6.0,0.1,29.99,SSW,209,0.0,0.0,76,0.00,,,0.00,WUHU216DAVISWMX,2013-01-02 11:03:00,
2013-01-02 06:08:00,6.2,0.3,29.99,SSW,209,0.0,2.0,76,0.00,,,0.00,WUHU216DAVISWMX,2013-01-02 11:08:00,
2013-01-02 06:13:00,6.4,0.7,29.99,SSW,209,0.0,2.0,77,0.00,,,0.00,WUHU216DAVISWMX,2013-01-02 11:13:00,
2013-01-02 06:18:00,6.4,0.7,29.99,SSW,209,0.0,1.0,77,0.00,,,0.00,WUHU216DAVISWMX,2013-01-02 11:18:00,
2013-01-02 06:23:00,6.3,0.4,29.99,SSW,209,0.0,0.0,76,0.00,,,0.00,WUHU216DAVISWMX,2013-01-02 11:23:00,
2013-01-02 06:28:00,6.3,0.4,29.99,SSW,209,0.0,0.0,76,0.00,,,0.00,WUHU216DAVISWMX,2013-01-02 11:28:00,
2013-01-02 06:33:00,5.9,0.0,29.99,SSW,209,0.0,0.0,76,0.00,,,0.00,WUHU216DAVISWMX,2013-01-02 11:33:00,
2013-01-02 06:38:00,5.6,-0.6,29.98,SSW,209,0.0,0.0,75,0.00,,,0.00,WUHU216DAVISWMX,2013-01-02 11:38:00,
2013-01-02 06:43:00,5.6,-0.3,29.98,SSW,209,0.0,0.0,76,0.00,,,0.00,WUHU216DAVISWMX,2013-01-02 11:43:00,
2013-01-02 06:48:00,5.6,-0.3,29.98,SSW,209,0.0,0.0,76,0.00,,,0.00,WUHU216DAVISWMX,2013-01-02 11:48:00,
2013-01-02 06:53:00,5.7,0.1,29.98,SSW,209,0.0,1.0,77,0.00,,,0.00,WUHU216DAVISWMX,2013-01-02 11:53:00,
2013-01-02 06:58:00,5.7,0.1,29.98,SSW,209,0.0,1.0,77,0.00,,,0.00,WUHU216DAVISWMX,2013-01-02 11:58:00,
2013-01-02 07:03:00,5.7,0.1,29.98,SSW,209,0.0,0.0,77,0.00,,,0.00,WUHU216DAVISWMX,2013-01-02 12:03:00,
2013-01-02 07:08:00,5.5,-0.4,29.98,SSW,209,0.0,0.0,76,0.00,,,0.00,WUHU216DAVISWMX,2013-01-02 12:08:00,
2013-01-02 07:13:00,5.6,0.0,29.98,SSW,209,0.0,0.0,77,0.00,,,0.00,WUHU216DAVISWMX,2013-01-02 12:13:00,
2013-01-02 07:18:00,5.4,-0.5,29.97,SSW,209,0.0,1.0,76,0.00,,,0.00,WUHU216DAVISWMX,2013-01-02 12:18:00,
2013-01-02 07:23:00,5.4,-0.5,29.97,SSW,209,0.0,1.0,76,0.00,,,0.00,WUHU216DAVISWMX,2013-01-02 12:23:00,
2013-01-02 07:28:00,5.4,-0.2,29.97,SSW,209,0.0,1.0,77,0.00,,,0.00,WUHU216DAVISWMX,2013-01-02 12:28:00,
2013-01-02 07:33:00,5.7,0.1,29.97,SSW,209,0.0,1.0,77,0.00,,,0.00,WUHU216DAVISWMX,2013-01-02 12:33:00,
2013-01-02 07:38:00,5.7,0.1,29.96,West,277,0.0,2.0,77,0.00,,,0.00,WUHU216DAVISWMX,2013-01-02 12:38:00,
2013-01-02 07:43:00,6.0,0.6,29.96,SW,226,0.0,2.0,78,0.00,,,0.00,WUHU216DAVISWMX,2013-01-02 12:43:00,
2013-01-02 07:48:00,6.5,1.4,29.96,NNW,332,0.0,3.0,79,0.00,,,0.00,WUHU216DAVISWMX,2013-01-02 12:48:00,
2013-01-02 07:53:00,7.2,2.3,29.96,NW,313,0.0,3.0,80,0.00,,,0.00,WUHU216DAVISWMX,2013-01-02 12:53:00,
2013-01-02 07:58:00,8.0,3.4,29.96,NW,313,0.0,2.0,81,0.00,,,0.00,WUHU216DAVISWMX,2013-01-02 12:58:00,
2013-01-02 08:03:00,8.6,4.2,29.96,NNE,21,0.0,1.0,82,0.00,,,0.00,WUHU216DAVISWMX,2013-01-02 13:03:00,
2013-01-02 08:08:00,9.7,5.3,29.96,WNW,291,0.0,3.0,82,0.00,,,0.00,WUHU216DAVISWMX,2013-01-02 13:08:00,
2013-01-02 08:13:00,10.3,5.6,29.96,WNW,291,0.0,3.0,81,0.00,,,0.00,WUHU216DAVISWMX,2013-01-02 13:13:00,
2013-01-02 08:18:00,11.1,6.4,29.96,SW,219,0.0,2.0,81,0.00,,,0.00,WUHU216DAVISWMX,2013-01-02 13:18:00,
2013-01-02 08:23:00,12.1,7.1,29.96,NW,317,1.0,5.0,80,0.00,,,0.00,WUHU216DAVISWMX,2013-01-02 13:23:00,
2013-01-02 08:28:00,12.7,7.4,29.96,NNW,331,0.0,5.0,79,0.00,,,0.00,WUHU216DAVISWMX,2013-01-02 13:28:00,
2013-01-02 08:33:00,13.4,8.1,29.96,WNW,287,1.0,4.0,79,0.00,,,0.00,WUHU216DAVISWMX,2013-01-02 13:33:00,
2013-01-02 08:38:00,13.8,7.9,29.96,WNW,286,1.0,4.0,77,0.00,,,0.00,WUHU216DAVISWMX,2013-01-02 13:38:00,
2013-01-02 08:43:00,14.4,8.2,29.95,NNW,340,0.0,4.0,76,0.00,,,0.00,WUHU216DAVISWMX,2013-01-02 13:43:00,
2013-01-02 08:48:00,14.7,8.8,29.95,West,271,3.0,3.0,77,0.00,,,0.00,WUHU216DAVISWMX,2013-01-02 13:48:00,
2013-01-02 08:53:00,15.2,8.7,29.96,NW,314,3.0,5.0,75,0.00,,,0.00,WUHU216DAVISWMX,2013-01-02 13:53:00,
2013-01-02 08:58:00,15.6,9.4,29.96,NW,314,1.0,5.0,76,0.00,,,0.00,WUHU216DAVISWMX,2013-01-02 13:58:00,
2013-01-02 09:03:00,15.7,9.2,29.96,WSW,240,1.0,4.0,75,0.00,,,0.00,WUHU216DAVISWMX,2013-01-02 14:03:00,
2013-01-02 09:08:00,16.1,9.3,29.96,NW,324,2.0,4.0,74,0.00,,,0.00,WUHU216DAVISWMX,2013-01-02 14:08:00,
2013-01-02 09:13:00,16.3,9.5,29.97,WNW,302,2.0,4.0,74,0.00,,,0.00,WUHU216DAVISWMX,2013-01-02 14:13:00,
2013-01-02 09:18:00,16.6,9.8,29.97,WNW,288,0.0,3.0,74,0.00,,,0.00,WUHU216DAVISWMX,2013-01-02 14:18:00,
2013-01-02 09:23:00,17.0,9.9,29.97,West,261,3.0,5.0,73,0.00,,,0.00,WUHU216DAVISWMX,2013-01-02 14:23:00,
2013-01-02 09:28:00,17.2,10.1,29.97,SW,236,0.0,5.0,73,0.00,,,0.00,WUHU216DAVISWMX,2013-01-02 14:28:00,
2013-01-02 09:33:00,17.7,10.6,29.97,WSW,240,1.0,4.0,73,0.00,,,0.00,WUHU216DAVISWMX,2013-01-02 14:33:00,
2013-01-02 09:38:00,17.9,10.7,29.98,West,266,1.0,4.0,73,0.00,,,0.00,WUHU216DAVISWMX,2013-01-02 14:38:00,
2013-01-02 09:43:00,18.3,10.8,29.98,West,281,3.0,5.0,72,0.00,,,0.00,WUHU216DAVISWMX,2013-01-02 14:43:00,
2013-01-02 09:48:00,18.6,11.1,29.98,NW,321,4.0,7.0,72,0.00,,,0.00,WUHU216DAVISWMX,2013-01-02 14:48:00,
2013-01-02 09:53:00,19.0,11.2,29.98,West,270,2.0,7.0,71,0.00,,,0.00,WUHU216DAVISWMX,2013-01-02 14:53:00,
2013-01-02 09:58:00,19.3,11.8,29.98,WSW,242,2.0,6.0,72,0.00,,,0.00,WUHU216DAVISWMX,2013-01-02 14:58:00,
2013-01-02 10:03:00,19.7,11.9,29.97,NW,312,1.0,5.0,71,0.00,,,0.00,WUHU216DAVISWMX,2013-01-02 15:03:00,
2013-01-02 10:08:00,20.0,12.2,29.97,WNW,299,2.0,7.0,71,0.00,,,0.00,WUHU216DAVISWMX,2013-01-02 15:08:00,
2013-01-02 10:13:00,20.5,12.6,29.97,WSW,249,1.0,7.0,71,0.00,,,0.00,WUHU216DAVISWMX,2013-01-02 15:13:00,
2013-01-02 10:18:00,20.8,12.9,29.97,WSW,257,5.0,8.0,71,0.00,,,0.00,WUHU216DAVISWMX,2013-01-02 15:18:00,
2013-01-02 10:23:00,21.0,13.1,29.97,West,267,7.0,8.0,71,0.00,,,0.00,WUHU216DAVISWMX,2013-01-02 15:23:00,
2013-01-02 10:28:00,21.4,13.2,29.97,WSW,258,1.0,7.0,70,0.00,,,0.00,WUHU216DAVISWMX,2013-01-02 15:28:00,
2013-01-02 10:33:00,21.9,13.7,29.96,WNW,303,7.0,7.0,70,0.00,,,0.00,WUHU216DAVISWMX,2013-01-02 15:33:00,
2013-01-02 10:38:00,22.1,13.9,29.97,West,259,2.0,7.0,70,0.00,,,0.00,WUHU216DAVISWMX,2013-01-02 15:38:00,
2013-01-02 10:43:00,22.4,14.1,29.96,WNW,302,2.0,8.0,70,0.00,,,0.00,WUHU216DAVISWMX,2013-01-02 15:43:00,
2013-01-02 10:48:00,22.8,14.5,29.96,WNW,287,4.0,8.0,70,0.00,,,0.00,WUHU216DAVISWMX,2013-01-02 15:48:00,
2013-01-02 10:53:00,23.0,14.4,29.96,West,266,4.0,6.0,69,0.00,,,0.00,WUHU216DAVISWMX,2013-01-02 15:53:00,
2013-01-02 10:58:00,23.4,14.8,29.96,NNW,347,1.0,6.0,69,0.00,,,0.00,WUHU216DAVISWMX,2013-01-02 15:58:00,
2013-01-02 11:03:00,23.7,15.1,29.96,South,189,4.0,6.0,69,0.00,,,0.00,WUHU216DAVISWMX,2013-01-02 16:03:00,
2013-01-02 11:08:00,23.8,15.2,29.95,NW,309,1.0,7.0,69,0.00,,,0.00,WUHU216DAVISWMX,2013-01-02 16:08:00,
2013-01-02 11:13:00,23.9,15.3,29.95,NW,309,4.0,7.0,69,0.00,,,0.00,WUHU216DAVISWMX,2013-01-02 16:13:00,
2013-01-02 11:18:00,24.1,15.5,29.95,WSW,253,3.0,6.0,69,0.00,,,0.00,WUHU216DAVISWMX,2013-01-02 16:18:00,
2013-01-02 11:23:00,24.0,15.4,29.95,WNW,283,2.0,10.0,69,0.00,,,0.00,WUHU216DAVISWMX,2013-01-02 16:23:00,
2013-01-02 11:28:00,24.0,15.4,29.95,WNW,303,3.0,9.0,69,0.00,,,0.00,WUHU216DAVISWMX,2013-01-02 16:28:00,
2013-01-02 11:33:00,24.2,15.5,29.94,West,277,4.0,8.0,69,0.00,,,0.00,WUHU216DAVISWMX,2013-01-02 16:33:00,
2013-01-02 11:38:00,24.2,15.2,29.94,WSW,256,4.0,9.0,68,0.00,,,0.00,WUHU216DAVISWMX,2013-01-02 16:38:00,
2013-01-02 11:43:00,24.5,15.5,29.94,WSW,242,5.0,9.0,68,0.00,,,0.00,WUHU216DAVISWMX,2013-01-02 16:43:00,
2013-01-02 11:48:00,24.7,15.7,29.94,WNW,291,1.0,8.0,68,0.00,,,0.00,WUHU216DAVISWMX,2013-01-02 16:48:00,
2013-01-02 11:53:00,24.9,15.9,29.94,NNW,327,1.0,9.0,68,0.00,,,0.00,WUHU216DAVISWMX,2013-01-02 16:53:00,
2013-01-02 11:58:00,25.1,16.1,29.94,NW,318,2.0,9.0,68,0.00,,,0.00,WUHU216DAVISWMX,2013-01-02 16:58:00,
2013-01-02 12:03:00,25.3,16.3,29.94,NNW,329,5.0,6.0,68,0.00,,,0.00,WUHU216DAVISWMX,2013-01-02 17:03:00,
2013-01-02 12:08:00,25.5,16.1,29.93,West,276,2.0,11.0,67,0.00,,,0.00,WUHU216DAVISWMX,2013-01-02 17:08:00,
2013-01-02 12:13:00,25.6,16.6,29.94,West,267,4.0,11.0,68,0.00,,,0.00,WUHU216DAVISWMX,2013-01-02 17:13:00,
2013-01-02 12:18:00,25.8,16.8,29.94,WNW,284,2.0,9.0,68,0.00,,,0.00,WUHU216DAVISWMX,2013-01-02 17:18:00,
2013-01-02 12:24:00,26.1,16.7,29.94,WNW,285,7.0,9.0,67,0.00,,,0.00,WUHU216DAVISWMX,2013-01-02 17:24:00,
2013-01-02 12:29:00,26.2,16.8,29.94,NNW,332,1.0,7.0,67,0.00,,,0.00,WUHU216DAVISWMX,2013-01-02 17:29:00,
2013-01-02 12:34:00,26.4,17.0,29.94,South,184,2.0,6.0,67,0.00,,,0.00,WUHU216DAVISWMX,2013-01-02 17:34:00,
2013-01-02 12:39:00,26.4,17.0,29.94,NW,321,3.0,4.0,67,0.00,,,0.00,WUHU216DAVISWMX,2013-01-02 17:39:00,
2013-01-02 12:44:00,26.4,16.6,29.94,NNW,335,3.0,9.0,66,0.00,,,0.00,WUHU216DAVISWMX,2013-01-02 17:44:00,
2013-01-02 12:49:00,26.4,16.6,29.93,WSW,252,1.0,9.0,66,0.00,,,0.00,WUHU216DAVISWMX,2013-01-02 17:49:00,
2013-01-02 12:54:00,26.6,17.5,29.94,SSW,198,6.0,6.0,68,0.00,,,0.00,WUHU216DAVISWMX,2013-01-02 17:54:00,
2013-01-02 12:59:00,26.7,16.9,29.93,NW,320,3.0,9.0,66,0.00,,,0.00,WUHU216DAVISWMX,2013-01-02 17:59:00,
2013-01-02 13:04:00,26.7,16.9,29.94,NW,306,1.0,9.0,66,0.00,,,0.00,WUHU216DAVISWMX,2013-01-02 18:04:00,
2013-01-02 13:09:00,26.9,17.1,29.94,NNW,332,5.0,8.0,66,0.00,,,0.00,WUHU216DAVISWMX,2013-01-02 18:09:00,
2013-01-02 13:14:00,27.0,17.2,29.94,NW,325,1.0,8.0,66,0.00,,,0.00,WUHU216DAVISWMX,2013-01-02 18:14:00,
2013-01-02 13:19:00,27.0,16.9,29.94,NW,316,3.0,8.0,65,0.00,,,0.00,WUHU216DAVISWMX,2013-01-02 18:19:00,
2013-01-02 13:24:00,26.9,16.8,29.94,NW,326,3.0,7.0,65,0.00,,,0.00,WUHU216DAVISWMX,2013-01-02 18:24:00,
2013-01-02 13:29:00,27.0,16.9,29.94,NW,321,1.0,7.0,65,0.00,,,0.00,WUHU216DAVISWMX,2013-01-02 18:29:00,
2013-01-02 13:34:00,27.1,17.0,29.94,NNW,333,0.0,7.0,65,0.00,,,0.00,WUHU216DAVISWMX,2013-01-02 18:34:00,
2013-01-02 13:39:00,27.3,17.5,29.94,NW,316,4.0,6.0,66,0.00,,,0.00,WUHU216DAVISWMX,2013-01-02 18:39:00,
2013-01-02 13:44:00,27.5,18.0,29.94,WSW,252,4.0,7.0,67,0.00,,,0.00,WUHU216DAVISWMX,2013-01-02 18:44:00,
2013-01-02 13:49:00,27.4,17.9,29.95,NNW,327,4.0,7.0,67,0.00,,,0.00,WUHU216DAVISWMX,2013-01-02 18:49:00,
2013-01-02 13:54:00,27.5,18.0,29.95,WNW,292,4.0,6.0,67,0.00,,,0.00,WUHU216DAVISWMX,2013-01-02 18:54:00,
2013-01-02 13:59:00,27.2,18.1,29.96,WNW,303,3.0,8.0,68,0.00,,,0.00,WUHU216DAVISWMX,2013-01-02 18:59:00,
2013-01-02 14:04:00,27.1,18.3,29.96,NNW,340,1.0,8.0,69,0.00,,,0.00,WUHU216DAVISWMX,2013-01-02 19:04:00,
2013-01-02 14:09:00,27.0,18.6,29.96,NW,315,4.0,7.0,70,0.00,,,0.00,WUHU216DAVISWMX,2013-01-02 19:09:00,
2013-01-02 14:14:00,26.8,18.4,29.96,West,275,5.0,7.0,70,0.00,,,0.00,WUHU216DAVISWMX,2013-01-02 19:14:00,
2013-01-02 14:19:00,26.6,18.2,29.97,NW,318,3.0,10.0,70,0.00,,,0.00,WUHU216DAVISWMX,2013-01-02 19:19:00,
2013-01-02 14:24:00,26.4,18.0,29.96,NNW,336,6.0,10.0,70,0.00,,,0.00,WUHU216DAVISWMX,2013-01-02 19:24:00,
2013-01-02 14:29:00,26.2,17.8,29.97,NNW,328,6.0,7.0,70,0.00,,,0.00,WUHU216DAVISWMX,2013-01-02 19:29:00,
2013-01-02 14:34:00,26.1,17.4,29.98,NW,316,3.0,7.0,69,0.00,,,0.00,WUHU216DAVISWMX,2013-01-02 19:34:00,
2013-01-02 14:39:00,25.8,17.1,29.98,WNW,296,2.0,7.0,69,0.00,,,0.00,WUHU216DAVISWMX,2013-01-02 19:39:00,
2013-01-02 14:44:00,25.9,17.2,29.98,NW,324,5.0,6.0,69,0.00,,,0.00,WUHU216DAVISWMX,2013-01-02 19:44:00,
2013-01-02 14:49:00,25.7,16.7,29.98,NW,325,7.0,7.0,68,0.00,,,0.00,WUHU216DAVISWMX,2013-01-02 19:49:00,
2013-01-02 14:54:00,25.8,16.8,29.98,WNW,290,3.0,8.0,68,0.00,,,0.00,WUHU216DAVISWMX,2013-01-02 19:54:00,
2013-01-02 14:59:00,25.7,16.7,29.98,North,356,4.0,8.0,68,0.00,,,0.00,WUHU216DAVISWMX,2013-01-02 19:59:00,
2013-01-02 15:04:00,25.8,16.8,29.98,NW,320,3.0,8.0,68,0.00,,,0.00,WUHU216DAVISWMX,2013-01-02 20:04:00,
2013-01-02 15:09:00,25.6,16.6,29.99,NNW,340,1.0,4.0,68,0.00,,,0.00,WUHU216DAVISWMX,2013-01-02 20:09:00,
2013-01-02 15:14:00,25.7,16.0,29.99,NNW,330,4.0,10.0,66,0.00,,,0.00,WUHU216DAVISWMX,2013-01-02 20:14:00,
2013-01-02 15:19:00,25.8,16.1,29.99,NNW,330,6.0,10.0,66,0.00,,,0.00,WUHU216DAVISWMX,2013-01-02 20:19:00,
2013-01-02 15:24:00,25.6,15.9,29.99,NNW,335,8.0,8.0,66,0.00,,,0.00,WUHU216DAVISWMX,2013-01-02 20:24:00,
2013-01-02 15:29:00,25.6,15.9,29.99,NNW,333,5.0,9.0,66,0.00,,,0.00,WUHU216DAVISWMX,2013-01-02 20:29:00,
2013-01-02 15:34:00,25.6,15.5,29.99,NNW,331,5.0,9.0,65,0.00,,,0.00,WUHU216DAVISWMX,2013-01-02 20:34:00,
2013-01-02 15:39:00,25.5,16.5,30.00,North,359,3.0,7.0,68,0.00,,,0.00,WUHU216DAVISWMX,2013-01-02 20:39:00,
2013-01-02 15:44:00,25.5,17.5,30.00,NE,39,1.0,5.0,71,0.00,,,0.00,WUHU216DAVISWMX,2013-01-02 20:44:00,
2013-01-02 15:49:00,25.4,17.7,30.00,WNW,298,2.0,5.0,72,0.00,,,0.00,WUHU216DAVISWMX,2013-01-02 20:49:00,
2013-01-02 15:54:00,25.1,17.4,30.01,NNW,338,4.0,4.0,72,0.00,,,0.00,WUHU216DAVISWMX,2013-01-02 20:54:00,
2013-01-02 15:59:00,25.1,17.7,30.00,North,0,3.0,5.0,73,0.00,,,0.00,WUHU216DAVISWMX,2013-01-02 20:59:00,
2013-01-02 16:04:00,24.9,17.2,30.01,North,349,1.0,5.0,72,0.00,,,0.00,WUHU216DAVISWMX,2013-01-02 21:04:00,
2013-01-02 16:09:00,24.5,16.8,30.01,North,351,3.0,3.0,72,0.00,,,0.00,WUHU216DAVISWMX,2013-01-02 21:09:00,
2013-01-02 16:14:00,24.5,16.5,30.02,NNW,341,1.0,3.0,71,0.00,,,0.00,WUHU216DAVISWMX,2013-01-02 21:14:00,
2013-01-02 16:19:00,24.4,16.7,30.02,NNW,341,3.0,3.0,72,0.00,,,0.00,WUHU216DAVISWMX,2013-01-02 21:19:00,
2013-01-02 16:24:00,24.0,16.0,30.02,NNW,341,2.0,3.0,71,0.00,,,0.00,WUHU216DAVISWMX,2013-01-02 21:24:00,
2013-01-02 16:29:00,23.9,15.6,30.02,NNW,333,2.0,5.0,70,0.00,,,0.00,WUHU216DAVISWMX,2013-01-02 21:29:00,
2013-01-02 16:34:00,23.7,15.4,30.02,NNW,333,0.0,5.0,70,0.00,,,0.00,WUHU216DAVISWMX,2013-01-02 21:34:00,
2013-01-02 16:39:00,23.6,15.3,30.03,NW,324,1.0,5.0,70,0.00,,,0.00,WUHU216DAVISWMX,2013-01-02 21:39:00,
2013-01-02 16:44:00,23.3,15.0,30.03,NW,323,3.0,5.0,70,0.00,,,0.00,WUHU216DAVISWMX,2013-01-02 21:44:00,
2013-01-02 16:49:00,23.4,15.1,30.03,NW,326,5.0,6.0,70,0.00,,,0.00,WUHU216DAVISWMX,2013-01-02 21:49:00,
2013-01-02 16:54:00,23.2,14.9,30.03,NNW,330,3.0,8.0,70,0.00,,,0.00,WUHU216DAVISWMX,2013-01-02 21:54:00,
2013-01-02 16:59:00,23.1,14.5,30.03,NNW,340,2.0,8.0,69,0.00,,,0.00,WUHU216DAVISWMX,2013-01-02 21:59:00,
2013-01-02 17:04:00,23.0,14.4,30.03,NNW,328,0.0,6.0,69,0.00,,,0.00,WUHU216DAVISWMX,2013-01-02 22:04:00,
2013-01-02 17:09:00,22.9,14.6,30.04,NNW,328,0.0,5.0,70,0.00,,,0.00,WUHU216DAVISWMX,2013-01-02 22:09:00,
2013-01-02 17:14:00,22.8,14.5,30.04,NNW,328,0.0,2.0,70,0.00,,,0.00,WUHU216DAVISWMX,2013-01-02 22:14:00,
2013-01-02 17:19:00,22.6,14.3,30.04,NNW,328,0.0,2.0,70,0.00,,,0.00,WUHU216DAVISWMX,2013-01-02 22:19:00,
2013-01-02 17:24:00,22.2,14.0,30.04,NNW,328,0.0,0.0,70,0.00,,,0.00,WUHU216DAVISWMX,2013-01-02 22:24:00,
2013-01-02 17:29:00,22.1,13.9,30.03,NNW,328,0.0,0.0,70,0.00,,,0.00,WUHU216DAVISWMX,2013-01-02 22:29:00,
2013-01-02 17:34:00,21.9,13.7,30.04,NNW,328,2.0,2.0,70,0.00,,,0.00,WUHU216DAVISWMX,2013-01-02 22:34:00,
2013-01-02 17:39:00,21.5,13.0,30.04,NNW,329,1.0,3.0,69,0.00,,,0.00,WUHU216DAVISWMX,2013-01-02 22:39:00,
2013-01-02 17:44:00,21.5,13.6,30.04,NNW,328,4.0,5.0,71,0.00,,,0.00,WUHU216DAVISWMX,2013-01-02 22:44:00,
2013-01-02 17:49:00,21.5,12.6,30.04,NNW,329,0.0,5.0,68,0.00,,,0.00,WUHU216DAVISWMX,2013-01-02 22:49:00,
2013-01-02 17:54:00,21.2,12.3,30.05,NNW,338,1.0,3.0,68,0.00,,,0.00,WUHU216DAVISWMX,2013-01-02 22:54:00,
2013-01-02 17:59:00,21.2,12.3,30.05,NNW,339,2.0,3.0,68,0.00,,,0.00,WUHU216DAVISWMX,2013-01-02 22:59:00,
2013-01-02 18:04:00,21.0,12.1,30.05,NNW,338,0.0,3.0,68,0.00,,,0.00,WUHU216DAVISWMX,2013-01-02 23:04:00,
2013-01-02 18:09:00,20.8,12.0,30.05,NNW,338,1.0,3.0,68,0.00,,,0.00,WUHU216DAVISWMX,2013-01-02 23:09:00,
2013-01-02 18:14:00,20.6,11.8,30.05,NNW,340,1.0,3.0,68,0.00,,,0.00,WUHU216DAVISWMX,2013-01-02 23:14:00,
2013-01-02 18:19:00,20.5,11.7,30.06,NNW,341,2.0,3.0,68,0.00,,,0.00,WUHU216DAVISWMX,2013-01-02 23:19:00,
2013-01-02 18:24:00,20.5,11.7,30.06,NNW,341,2.0,3.0,68,0.00,,,0.00,WUHU216DAVISWMX,2013-01-02 23:24:00,
2013-01-02 18:29:00,20.3,10.8,30.06,NE,36,0.0,4.0,66,0.00,,,0.00,WUHU216DAVISWMX,2013-01-02 23:29:00,
2013-01-02 18:34:00,20.0,10.5,30.07,NNE,13,2.0,5.0,66,0.00,,,0.00,WUHU216DAVISWMX,2013-01-02 23:34:00,
2013-01-02 18:39:00,19.8,10.3,30.06,NNE,27,0.0,5.0,66,0.00,,,0.00,WUHU216DAVISWMX,2013-01-02 23:39:00,
2013-01-02 18:44:00,19.7,10.6,30.07,NNE,27,0.0,4.0,67,0.00,,,0.00,WUHU216DAVISWMX,2013-01-02 23:44:00,
2013-01-02 18:49:00,19.6,10.8,30.07,NNE,27,0.0,2.0,68,0.00,,,0.00,WUHU216DAVISWMX,2013-01-02 23:49:00,
2013-01-02 18:54:00,19.5,10.7,30.08,NE,46,0.0,3.0,68,0.00,,,0.00,WUHU216DAVISWMX,2013-01-02 23:54:00,
2013-01-02 18:59:00,19.3,10.5,30.08,NE,46,0.0,3.0,68,0.00,,,0.00,WUHU216DAVISWMX,2013-01-02 23:59:00,
2013-01-02 19:04:00,19.1,10.6,30.09,NE,45,2.0,4.0,69,0.00,,,0.00,WUHU216DAVISWMX,2013-01-03 00:04:00,
2013-01-02 19:09:00,19.0,10.6,30.09,WNW,293,1.0,5.0,69,0.00,,,0.00,WUHU216DAVISWMX,2013-01-03 00:09:00,
2013-01-02 19:14:00,18.6,9.5,30.09,North,0,0.0,5.0,67,0.00,,,0.00,WUHU216DAVISWMX,2013-01-03 00:14:00,
2013-01-02 19:19:00,18.7,9.9,30.09,North,0,0.0,4.0,68,0.00,,,0.00,WUHU216DAVISWMX,2013-01-03 00:19:00,
2013-01-02 19:24:00,18.7,9.9,30.09,North,0,1.0,3.0,68,0.00,,,0.00,WUHU216DAVISWMX,2013-01-03 00:24:00,
2013-01-02 19:29:00,18.3,9.2,30.09,NW,322,1.0,4.0,67,0.00,,,0.00,WUHU216DAVISWMX,2013-01-03 00:29:00,
2013-01-02 19:35:00,18.0,8.6,30.09,NNW,330,4.0,5.0,66,0.00,,,0.00,WUHU216DAVISWMX,2013-01-03 00:35:00,
2013-01-02 19:40:00,18.0,8.6,30.09,WNW,298,2.0,5.0,66,0.00,,,0.00,WUHU216DAVISWMX,2013-01-03 00:40:00,
2013-01-02 19:45:00,17.9,8.8,30.09,WNW,298,1.0,3.0,67,0.00,,,0.00,WUHU216DAVISWMX,2013-01-03 00:45:00,
2013-01-02 19:50:00,17.7,8.3,30.09,WNW,303,3.0,3.0,66,0.00,,,0.00,WUHU216DAVISWMX,2013-01-03 00:50:00,
2013-01-02 19:55:00,17.4,8.4,30.09,NW,307,2.0,4.0,67,0.00,,,0.00,WUHU216DAVISWMX,2013-01-03 00:55:00,
2013-01-02 20:00:00,17.1,8.1,30.09,NNW,333,1.0,4.0,67,0.00,,,0.00,WUHU216DAVISWMX,2013-01-03 01:00:00,
2013-01-02 20:05:00,17.1,8.1,30.09,NNW,333,2.0,4.0,67,0.00,,,0.00,WUHU216DAVISWMX,2013-01-03 01:05:00,
2013-01-02 20:10:00,17.1,8.1,30.10,NW,324,1.0,4.0,67,0.00,,,0.00,WUHU216DAVISWMX,2013-01-03 01:10:00,
2013-01-02 20:15:00,16.9,8.2,30.10,NW,326,3.0,3.0,68,0.00,,,0.00,WUHU216DAVISWMX,2013-01-03 01:15:00,
2013-01-02 20:20:00,16.9,7.6,30.10,NNW,329,3.0,5.0,66,0.00,,,0.00,WUHU216DAVISWMX,2013-01-03 01:20:00,
2013-01-02 20:25:00,16.8,7.5,30.10,NW,317,2.0,5.0,66,0.00,,,0.00,WUHU216DAVISWMX,2013-01-03 01:25:00,
2013-01-02 20:30:00,16.3,7.3,30.10,NW,308,1.0,6.0,67,0.00,,,0.00,WUHU216DAVISWMX,2013-01-03 01:30:00,
2013-01-02 20:35:00,16.2,7.2,30.10,NW,311,4.0,6.0,67,0.00,,,0.00,WUHU216DAVISWMX,2013-01-03 01:35:00,
2013-01-02 20:40:00,16.0,7.3,30.10,NW,322,1.0,4.0,68,0.00,,,0.00,WUHU216DAVISWMX,2013-01-03 01:40:00,
2013-01-02 20:45:00,16.1,7.1,30.10,NNW,340,5.0,7.0,67,0.00,,,0.00,WUHU216DAVISWMX,2013-01-03 01:45:00,
2013-01-02 20:50:00,16.2,6.9,30.10,NNW,330,3.0,8.0,66,0.00,,,0.00,WUHU216DAVISWMX,2013-01-03 01:50:00,
2013-01-02 20:55:00,16.2,7.2,30.10,NNW,331,2.0,8.0,67,0.00,,,0.00,WUHU216DAVISWMX,2013-01-03 01:55:00,
2013-01-02 21:00:00,16.2,7.2,30.11,NNW,331,0.0,4.0,67,0.00,,,0.00,WUHU216DAVISWMX,2013-01-03 02:00:00,
2013-01-02 21:05:00,16.0,7.0,30.11,WNW,292,4.0,4.0,67,0.00,,,0.00,WUHU216DAVISWMX,2013-01-03 02:05:00,
2013-01-02 21:10:00,15.7,6.4,30.11,NW,315,2.0,4.0,66,0.00,,,0.00,WUHU216DAVISWMX,2013-01-03 02:10:00,
2013-01-02 21:15:00,15.4,6.4,30.12,NW,315,3.0,4.0,67,0.00,,,0.00,WUHU216DAVISWMX,2013-01-03 02:15:00,
2013-01-02 21:20:00,15.1,6.2,30.12,NW,316,2.0,4.0,67,0.00,,,0.00,WUHU216DAVISWMX,2013-01-03 02:20:00,
2013-01-02 21:25:00,15.2,6.6,30.12,NW,326,1.0,5.0,68,0.00,,,0.00,WUHU216DAVISWMX,2013-01-03 02:25:00,
2013-01-02 21:30:00,15.3,6.7,30.13,NNW,342,2.0,6.0,68,0.00,,,0.00,WUHU216DAVISWMX,2013-01-03 02:30:00,
2013-01-02 21:35:00,15.1,6.2,30.13,North,0,3.0,6.0,67,0.00,,,0.00,WUHU216DAVISWMX,2013-01-03 02:35:00,
2013-01-02 21:40:00,14.8,5.5,30.13,NW,325,3.0,5.0,66,0.00,,,0.00,WUHU216DAVISWMX,2013-01-03 02:40:00,
2013-01-02 21:45:00,14.5,5.6,30.13,NNW,334,3.0,5.0,67,0.00,,,0.00,WUHU216DAVISWMX,2013-01-03 02:45:00,
2013-01-02 21:50:00,14.5,5.6,30.12,NW,326,3.0,6.0,67,0.00,,,0.00,WUHU216DAVISWMX,2013-01-03 02:50:00,
2013-01-02 21:55:00,14.6,5.7,30.13,NNW,329,5.0,6.0,67,0.00,,,0.00,WUHU216DAVISWMX,2013-01-03 02:55:00,
2013-01-02 22:00:00,14.5,5.6,30.13,NNW,328,1.0,6.0,67,0.00,,,0.00,WUHU216DAVISWMX,2013-01-03 03:00:00,
2013-01-02 22:05:00,14.3,5.7,30.13,NNW,328,1.0,4.0,68,0.00,,,0.00,WUHU216DAVISWMX,2013-01-03 03:05:00,
2013-01-02 22:10:00,14.0,5.1,30.12,NNW,329,5.0,7.0,67,0.00,,,0.00,WUHU216DAVISWMX,2013-01-03 03:10:00,
2013-01-02 22:15:00,13.7,4.5,30.13,NNW,337,0.0,7.0,66,0.00,,,0.00,WUHU216DAVISWMX,2013-01-03 03:15:00,
2013-01-02 22:20:00,13.6,4.4,30.13,NNW,341,3.0,8.0,66,0.00,,,0.00,WUHU216DAVISWMX,2013-01-03 03:20:00,
2013-01-02 22:25:00,13.4,3.9,30.13,NNW,337,6.0,8.0,65,0.00,,,0.00,WUHU216DAVISWMX,2013-01-03 03:25:00,
2013-01-02 22:31:00,13.0,3.5,30.14,NNW,339,9.0,9.0,65,0.00,,,0.00,WUHU216DAVISWMX,2013-01-03 03:31:00,
2013-01-02 22:36:00,12.7,3.2,30.13,NW,326,1.0,9.0,65,0.00,,,0.00,WUHU216DAVISWMX,2013-01-03 03:36:00,
2013-01-02 22:42:00,12.5,3.0,30.13,NW,324,2.0,8.0,65,0.00,,,0.00,WUHU216DAVISWMX,2013-01-03 03:42:00,
2013-01-02 22:47:00,12.2,2.7,30.13,NW,323,0.0,8.0,65,0.00,,,0.00,WUHU216DAVISWMX,2013-01-03 03:47:00,
2013-01-02 22:52:00,12.1,2.6,30.13,NNW,337,5.0,8.0,65,0.00,,,0.00,WUHU216DAVISWMX,2013-01-03 03:52:00,
2013-01-02 22:57:00,12.2,2.7,30.14,NNW,334,1.0,7.0,65,0.00,,,0.00,WUHU216DAVISWMX,2013-01-03 03:57:00,
2013-01-02 23:02:00,12.0,2.5,30.14,NNW,339,1.0,5.0,65,0.00,,,0.00,WUHU216DAVISWMX,2013-01-03 04:02:00,
2013-01-02 23:07:00,11.8,2.7,30.13,North,0,2.0,5.0,66,0.00,,,0.00,WUHU216DAVISWMX,2013-01-03 04:07:00,
2013-01-02 23:12:00,11.7,1.9,30.13,NNW,327,2.0,5.0,64,0.00,,,0.00,WUHU216DAVISWMX,2013-01-03 04:12:00,
2013-01-02 23:17:00,11.5,2.1,30.13,NNW,334,2.0,6.0,65,0.00,,,0.00,WUHU216DAVISWMX,2013-01-03 04:17:00,
2013-01-02 23:22:00,11.5,2.4,30.13,NNW,334,1.0,6.0,66,0.00,,,0.00,WUHU216DAVISWMX,2013-01-03 04:22:00,
2013-01-02 23:27:00,11.5,2.4,30.14,ESE,102,1.0,5.0,66,0.00,,,0.00,WUHU216DAVISWMX,2013-01-03 04:27:00,
2013-01-02 23:32:00,11.5,2.1,30.14,NE,54,0.0,4.0,65,0.00,,,0.00,WUHU216DAVISWMX,2013-01-03 04:32:00,
2013-01-02 23:37:00,11.3,1.5,30.14,NW,307,1.0,4.0,64,0.00,,,0.00,WUHU216DAVISWMX,2013-01-03 04:37:00,
2013-01-02 23:42:00,11.0,1.2,30.14,NW,306,0.0,3.0,64,0.00,,,0.00,WUHU216DAVISWMX,2013-01-03 04:42:00,
2013-01-02 23:47:00,10.8,0.7,30.14,NW,320,1.0,2.0,63,0.00,,,0.00,WUHU216DAVISWMX,2013-01-03 04:47:00,
2013-01-02 23:52:00,10.7,1.0,30.14,NW,319,0.0,2.0,64,0.00,,,0.00,WUHU216DAVISWMX,2013-01-03 04:52:00,
2013-01-02 23:57:00,10.5,0.4,30.15,NW,319,0.0,1.0,63,0.00,,,0.00,WUHU216DAVISWMX,2013-01-03 04:57:00,